Time;durP1;ratioP1;P1;durP2;ratioP2;P2;SDS_P1;SDS_P2;PMS_P1;PMS_P2;Temp;Humidity;BMP_temperature;BMP_pressure;BME280_temperature;BME280_humidity;BME280_pressure;Samples;Min_cycle;Max_cycle;Signal;HPM_P1;HPM_P2
2022/05/04 00:01:24;;;;;;;2.30;1.03;;;9.00;99.90;;;;;;5013826;28;20670;-90
2022/05/04 00:03:50;;;;;;;1.53;1.00;;;9.10;99.90;;;;;;5046604;28;20233;-91
2022/05/04 00:06:16;;;;;;;1.13;0.90;;;9.10;99.90;;;;;;5044602;28;20222;-90
2022/05/04 00:08:42;;;;;;;2.60;0.90;;;9.00;99.90;;;;;;5030193;28;20264;-92
2022/05/04 00:11:11;;;;;;;0.60;0.60;;;9.00;99.90;;;;;;5030581;28;20190;-90
2022/05/04 00:13:37;;;;;;;0.97;0.73;;;9.00;99.90;;;;;;5046612;28;20225;-90
2022/05/04 00:16:03;;;;;;;0.67;0.60;;;9.00;99.90;;;;;;5045352;28;20271;-91
2022/05/04 00:18:29;;;;;;;7.27;0.60;;;8.90;99.90;;;;;;5029567;28;20252;-90
2022/05/04 00:20:55;;;;;;;0.50;0.50;;;8.90;99.90;;;;;;5046551;28;20222;-91
2022/05/04 00:23:21;;;;;;;3.30;2.30;;;8.80;99.90;;;;;;5045367;28;20340;-91
2022/05/04 00:25:47;;;;;;;0.60;0.60;;;8.80;99.90;;;;;;5047341;28;20194;-91
2022/05/04 00:28:13;;;;;;;1.83;0.73;;;8.80;99.90;;;;;;5028674;28;20687;-89
2022/05/04 00:30:39;;;;;;;0.40;0.40;;;8.80;99.90;;;;;;5046147;28;20672;-91
2022/05/04 00:33:05;;;;;;;0.87;0.87;;;8.80;99.90;;;;;;5045755;28;20707;-90
2022/05/04 00:35:34;;;;;;;6.63;1.00;;;8.80;99.90;;;;;;5046061;28;20221;-90
2022/05/04 00:38:02;;;;;;;1.20;0.77;;;8.90;99.90;;;;;;5046812;28;20576;-91
2022/05/04 00:40:28;;;;;;;3.60;1.00;;;8.90;99.90;;;;;;5045828;28;20217;-91
2022/05/04 00:42:54;;;;;;;1.03;0.67;;;8.90;99.90;;;;;;5045662;28;20714;-89
2022/05/04 00:45:20;;;;;;;5.93;1.20;;;8.90;99.90;;;;;;5045346;28;20218;-91
2022/05/04 00:47:48;;;;;;;1.00;1.00;;;8.90;99.90;;;;;;5046700;28;20210;-91
2022/05/04 00:50:14;;;;;;;5.83;0.87;;;8.90;99.90;;;;;;5048314;28;20186;-90
2022/05/04 00:52:43;;;;;;;0.60;0.60;;;8.90;99.90;;;;;;5045692;28;20225;-90
2022/05/04 00:55:16;;;;;;;1.50;0.50;;;9.00;99.90;;;;;;5045528;28;20229;-91
2022/05/04 01:00:28;;;;;;;1.50;1.03;;;9.10;99.90;;;;;;5045034;28;20748;-90
2022/05/04 01:02:54;;;;;;;5.30;0.80;;;9.10;99.90;;;;;;5029462;28;20238;-91
2022/05/04 01:05:19;;;;;;;2.60;1.33;;;9.10;99.90;;;;;;5045712;28;20217;-90
2022/05/04 01:07:46;;;;;;;2.00;0.47;;;9.00;99.90;;;;;;5029862;28;20194;-90
2022/05/04 01:10:14;;;;;;;2.43;1.30;;;9.00;99.90;;;;;;5046520;28;20210;-90
2022/05/04 01:12:51;;;;;;;5.30;1.17;;;9.00;99.90;;;;;;5044796;28;20222;-90
2022/05/04 01:15:19;;;;;;;2.20;0.90;;;8.90;99.90;;;;;;5028085;28;20296;-89
2022/05/04 01:17:45;;;;;;;2.10;0.93;;;8.90;99.90;;;;;;5045656;28;20666;-89
2022/05/04 01:20:12;;;;;;;1.17;0.90;;;8.90;99.90;;;;;;5045675;28;20627;-91
2022/05/04 01:22:38;;;;;;;3.50;2.40;;;8.90;99.90;;;;;;5028567;28;20712;-89
2022/05/04 01:25:05;;;;;;;1.13;1.07;;;8.90;99.90;;;;;;5027846;28;20221;-90
2022/05/04 01:27:31;;;;;;;6.00;0.97;;;8.90;99.90;;;;;;5027945;28;20225;-91
2022/05/04 01:29:57;;;;;;;0.90;0.83;;;8.90;99.90;;;;;;5028406;28;20226;-90
2022/05/04 01:32:24;;;;;;;0.77;0.53;;;8.80;99.90;;;;;;5028671;28;20689;-92
2022/05/04 01:34:50;;;;;;;0.50;0.50;;;8.70;99.90;;;;;;5046436;28;20185;-90
2022/05/04 01:37:16;;;;;;;2.40;0.93;;;8.70;99.90;;;;;;5026781;28;20217;-91
2022/05/04 01:39:42;;;;;;;1.57;0.70;;;8.70;99.90;;;;;;5027300;28;20233;-90
2022/05/04 01:42:15;;;;;;;0.57;0.50;;;8.70;99.90;;;;;;5027381;28;20229;-89
2022/05/04 01:44:43;;;;;;;1.13;1.10;;;8.60;99.90;;;;;;5045161;28;20225;-91
2022/05/04 01:47:09;;;;;;;0.90;0.90;;;8.70;99.90;;;;;;5045812;28;21064;-90
2022/05/04 01:49:36;;;;;;;1.13;1.13;;;8.70;99.90;;;;;;5044211;28;20221;-90
2022/05/04 01:52:05;;;;;;;4.70;0.90;;;8.60;99.90;;;;;;5046000;28;20218;-92
2022/05/04 01:54:30;;;;;;;0.80;0.77;;;8.70;99.90;;;;;;5044527;28;20236;-89
2022/05/04 01:56:56;;;;;;;0.93;0.90;;;8.70;99.90;;;;;;5028192;28;20705;-89
2022/05/04 01:59:22;;;;;;;4.57;1.40;;;8.70;99.90;;;;;;5045253;28;20189;-90
2022/05/04 02:01:48;;;;;;;3.03;1.10;;;8.80;99.90;;;;;;5028550;28;20221;-89
2022/05/04 02:04:15;;;;;;;2.93;0.93;;;8.70;99.90;;;;;;5045391;28;20233;-89
2022/05/04 02:06:41;;;;;;;1.03;0.70;;;8.80;99.90;;;;;;5044578;28;20221;-90
2022/05/04 02:09:07;;;;;;;1.37;1.07;;;8.80;99.90;;;;;;5044220;28;20222;-90
2022/05/04 02:11:36;;;;;;;1.83;0.63;;;8.70;99.90;;;;;;5043737;28;20193;-90
2022/05/04 02:14:03;;;;;;;1.23;1.00;;;8.70;99.90;;;;;;5062316;28;20182;-89
2022/05/04 02:16:29;;;;;;;2.67;1.17;;;8.70;99.90;;;;;;5044521;28;21105;-90
2022/05/04 02:18:58;;;;;;;0.77;0.73;;;8.60;99.90;;;;;;5043767;28;20759;-89
2022/05/04 02:21:24;;;;;;;1.73;0.90;;;8.60;99.90;;;;;;5045174;28;20221;-90
2022/05/04 02:23:51;;;;;;;1.13;1.03;;;8.60;99.90;;;;;;5043752;28;20539;-90
2022/05/04 02:26:16;;;;;;;0.57;0.57;;;8.60;99.90;;;;;;5045069;28;20186;-91
2022/05/04 02:28:43;;;;;;;1.40;0.60;;;8.60;99.90;;;;;;5018915;28;20222;-90
2022/05/04 02:31:09;;;;;;;1.87;1.03;;;8.60;99.90;;;;;;5044026;28;20221;-91
2022/05/04 02:33:35;;;;;;;1.87;0.70;;;8.70;99.90;;;;;;5044168;28;20218;-89
2022/05/04 02:38:46;;;;;;;0.80;0.80;;;8.70;99.90;;;;;;5046718;28;20220;-90
2022/05/04 02:41:12;;;;;;;3.03;0.83;;;8.80;99.90;;;;;;5015817;28;20178;-89
2022/05/04 02:43:37;;;;;;;1.97;1.07;;;8.80;99.90;;;;;;5031540;28;20383;-89
2022/05/04 02:46:20;;;;;;;3.70;1.30;;;8.70;99.90;;;;;;5064288;28;21183;-90
2022/05/04 02:48:46;;;;;;;1.57;1.17;;;8.70;99.90;;;;;;5031653;28;20721;-90
2022/05/04 02:51:13;;;;;;;10.50;1.57;;;8.70;99.90;;;;;;5031247;28;20347;-90
2022/05/04 02:53:38;;;;;;;3.27;1.30;;;8.70;99.90;;;;;;5063798;28;20763;-90
2022/05/04 02:56:08;;;;;;;2.53;0.77;;;8.70;99.90;;;;;;5032109;28;20304;-90
2022/05/04 02:58:34;;;;;;;2.40;0.80;;;8.70;99.90;;;;;;5047630;28;20238;-90
2022/05/04 03:03:55;;;;;;;0.57;0.57;;;8.60;99.90;;;;;;5049038;28;20232;-89
2022/05/04 03:06:22;;;;;;;2.57;1.00;;;8.50;99.90;;;;;;5030741;28;20620;-90
2022/05/04 03:08:48;;;;;;;0.77;0.50;;;8.60;99.90;;;;;;5047834;28;20725;-90
2022/05/04 03:13:59;;;;;;;1.63;0.70;;;8.70;99.90;;;;;;5049403;28;20300;-89
2022/05/04 03:16:25;;;;;;;1.17;0.90;;;8.60;99.90;;;;;;5063177;28;20217;-90
2022/05/04 03:18:51;;;;;;;7.83;3.03;;;8.60;99.90;;;;;;5013146;28;20252;-89
2022/05/04 03:21:17;;;;;;;2.03;1.13;;;8.60;99.90;;;;;;5014615;28;20671;-89
2022/05/04 03:23:42;;;;;;;1.50;0.70;;;8.50;99.90;;;;;;5014278;28;20234;-90
2022/05/04 03:26:09;;;;;;;5.63;2.27;;;8.50;99.90;;;;;;5031757;28;20196;-91
2022/05/04 03:28:35;;;;;;;0.70;0.70;;;8.50;99.90;;;;;;5031090;28;20272;-89
2022/05/04 03:31:02;;;;;;;4.10;0.67;;;8.50;99.90;;;;;;5047394;28;20564;-90
2022/05/04 03:33:31;;;;;;;0.53;0.53;;;8.50;99.90;;;;;;5046118;28;20603;-89
2022/05/04 03:35:59;;;;;;;0.97;0.87;;;8.60;99.90;;;;;;5046343;28;20384;-90
2022/05/04 03:38:27;;;;;;;2.63;1.80;;;8.50;99.90;;;;;;5045889;28;20232;-91
2022/05/04 03:40:53;;;;;;;0.83;0.83;;;8.40;99.90;;;;;;5046398;28;20196;-90
2022/05/04 03:43:21;;;;;;;0.93;0.67;;;8.50;99.90;;;;;;5029282;28;20268;-91
2022/05/04 03:45:47;;;;;;;3.10;1.10;;;8.60;99.90;;;;;;5047287;28;20229;-91
2022/05/04 03:48:13;;;;;;;1.10;1.00;;;8.60;99.90;;;;;;5046649;28;20237;-90
2022/05/04 03:50:39;;;;;;;1.17;0.67;;;8.60;99.90;;;;;;5046432;28;21881;-90
2022/05/04 03:53:05;;;;;;;3.03;1.73;;;8.60;99.90;;;;;;5048020;28;20186;-90
2022/05/04 03:55:31;;;;;;;8.33;0.80;;;8.70;99.90;;;;;;5048157;28;20253;-90
2022/05/04 03:57:58;;;;;;;4.37;1.73;;;8.70;99.90;;;;;;5047235;28;20291;-90
2022/05/04 04:00:24;;;;;;;0.67;0.67;;;8.70;99.90;;;;;;5047857;28;20218;-91
2022/05/04 04:02:49;;;;;;;1.67;1.00;;;8.70;99.90;;;;;;5030199;28;20725;-91
2022/05/04 04:05:15;;;;;;;0.83;0.83;;;8.70;99.90;;;;;;5014483;28;20309;-91
2022/05/04 04:07:41;;;;;;;1.00;0.77;;;8.60;99.90;;;;;;5013387;28;20206;-90
2022/05/04 04:10:08;;;;;;;9.13;1.60;;;8.60;99.90;;;;;;5046530;28;20225;-89
2022/05/04 04:12:33;;;;;;;0.77;0.53;;;8.60;99.90;;;;;;5029669;28;20301;-90
2022/05/04 04:14:59;;;;;;;2.87;1.37;;;8.50;99.90;;;;;;5045651;28;20323;-90
2022/05/04 04:17:25;;;;;;;1.03;0.90;;;8.40;99.90;;;;;;5030081;28;20198;-90
2022/05/04 04:21:50;;;;;;;1.03;0.67;;;8.50;99.90;;;;;;5048057;28;20178;-90
2022/05/04 04:22:36;;;;;;;2.10;0.83;;;8.60;99.90;;;;;;5047667;28;20254;-90
2022/05/04 04:25:05;;;;;;;0.93;0.93;;;8.70;99.90;;;;;;5046065;28;20309;-92
2022/05/04 04:27:32;;;;;;;0.43;0.40;;;8.70;99.90;;;;;;5047761;28;20305;-91
2022/05/04 04:29:58;;;;;;;2.83;1.40;;;8.80;99.90;;;;;;5046482;28;20240;-90
2022/05/04 04:32:24;;;;;;;3.90;1.00;;;8.90;99.90;;;;;;5029174;28;20631;-91
2022/05/04 04:34:53;;;;;;;2.53;1.13;;;9.00;99.90;;;;;;5047307;28;20337;-93
2022/05/04 04:37:21;;;;;;;2.00;1.13;;;9.00;99.90;;;;;;5045763;28;20220;-92
2022/05/04 04:39:50;;;;;;;5.23;0.97;;;9.00;99.90;;;;;;5032353;28;20230;-91
2022/05/04 04:42:16;;;;;;;2.27;1.17;;;9.10;99.90;;;;;;5045559;28;20624;-92
2022/05/04 04:44:42;;;;;;;1.13;1.07;;;9.10;99.90;;;;;;5045178;28;20336;-92
2022/05/04 04:47:10;;;;;;;0.87;0.60;;;9.10;99.90;;;;;;5048018;28;20177;-88
2022/05/04 04:49:36;;;;;;;1.13;0.80;;;9.10;99.90;;;;;;5016237;28;20214;-90
2022/05/04 04:52:11;;;;;;;0.93;0.93;;;9.10;99.90;;;;;;5046438;28;20310;-91
2022/05/04 04:54:39;;;;;;;3.13;0.80;;;9.10;99.90;;;;;;5014788;28;20320;-93
2022/05/04 04:57:05;;;;;;;2.43;1.43;;;9.10;99.90;;;;;;5044964;28;20313;-90
2022/05/04 04:59:31;;;;;;;0.83;0.80;;;9.10;99.90;;;;;;5019697;28;20228;-91
2022/05/04 05:02:01;;;;;;;1.57;0.87;;;9.10;99.90;;;;;;5044360;28;20328;-91
2022/05/04 05:04:26;;;;;;;1.97;1.37;;;9.20;99.90;;;;;;5037927;28;20248;-90
2022/05/04 05:06:59;;;;;;;0.70;0.70;;;9.20;99.90;;;;;;5043420;28;20226;-91
2022/05/04 05:09:25;;;;;;;9.73;1.03;;;9.20;99.90;;;;;;5043260;28;20541;-90
2022/05/04 05:11:51;;;;;;;1.00;0.87;;;9.20;99.90;;;;;;5032824;28;20220;-92
2022/05/04 05:17:01;;;;;;;7.53;1.67;;;9.30;99.90;;;;;;5046500;28;20241;-91
2022/05/04 05:19:29;;;;;;;5.93;1.50;;;9.30;99.90;;;;;;5034575;28;20299;-92
2022/05/04 05:21:55;;;;;;;0.67;0.67;;;9.30;99.90;;;;;;5036520;28;21031;-91
2022/05/04 05:24:21;;;;;;;1.70;1.07;;;9.40;99.90;;;;;;5010066;28;20690;-91
2022/05/04 05:26:46;;;;;;;1.30;1.10;;;9.40;99.90;;;;;;5044593;28;20226;-90
2022/05/04 05:29:12;;;;;;;7.23;1.30;;;9.40;99.90;;;;;;5028547;28;20209;-89
2022/05/04 05:31:38;;;;;;;0.60;0.60;;;9.20;99.90;;;;;;5017601;28;20670;-89
2022/05/04 05:34:04;;;;;;;4.20;1.60;;;9.30;99.90;;;;;;5007220;28;20315;-89
2022/05/04 05:36:30;;;;;;;2.40;1.10;;;9.40;99.90;;;;;;5030942;28;20461;-90
2022/05/04 05:38:58;;;;;;;5.10;1.33;;;9.30;99.90;;;;;;5043936;28;20226;-90
2022/05/04 05:41:26;;;;;;;0.80;0.80;;;9.10;99.90;;;;;;5026898;28;20261;-90
2022/05/04 05:43:52;;;;;;;1.87;1.30;;;9.00;99.90;;;;;;5028717;28;20647;-89
2022/05/04 05:46:18;;;;;;;1.10;1.10;;;9.20;99.90;;;;;;5044432;28;20272;-89
2022/05/04 05:48:47;;;;;;;2.27;0.60;;;9.20;99.90;;;;;;5015856;28;20237;-89
2022/05/04 05:51:13;;;;;;;2.13;1.27;;;9.30;99.90;;;;;;5037954;28;20213;-90
2022/05/04 05:53:39;;;;;;;5.83;1.23;;;9.50;99.90;;;;;;5021609;28;20217;-88
2022/05/04 05:56:05;;;;;;;2.67;1.03;;;9.60;99.90;;;;;;5032165;28;20387;-89
2022/05/04 05:58:31;;;;;;;0.67;0.67;;;9.60;99.90;;;;;;5044393;28;20226;-89
2022/05/04 06:00:56;;;;;;;1.57;1.47;;;9.50;99.90;;;;;;5045821;28;20229;-91
2022/05/04 06:03:22;;;;;;;1.13;1.07;;;9.60;99.90;;;;;;5028485;28;20226;-90
2022/05/04 06:05:48;;;;;;;8.53;1.73;;;9.70;99.90;;;;;;5061475;28;20263;-88
2022/05/04 06:08:14;;;;;;;4.43;1.60;;;9.60;99.90;;;;;;5040742;28;20190;-91
2022/05/04 06:10:40;;;;;;;1.00;0.83;;;9.90;99.90;;;;;;5010752;28;20689;-90
2022/05/04 06:13:06;;;;;;;0.60;0.60;;;10.10;99.90;;;;;;5026873;28;20355;-88
2022/05/04 06:15:33;;;;;;;5.03;1.20;;;10.10;99.90;;;;;;5044642;28;20206;-88
2022/05/04 06:17:59;;;;;;;1.83;1.13;;;10.20;99.90;;;;;;5027872;28;20233;-88
2022/05/04 06:20:26;;;;;;;5.80;1.20;;;10.20;99.90;;;;;;5044685;28;20190;-89
2022/05/04 06:22:52;;;;;;;4.97;1.67;;;10.40;99.90;;;;;;5045173;28;20267;-86
2022/05/04 06:25:18;;;;;;;1.10;1.00;;;10.50;99.90;;;;;;5042846;28;20225;-87
2022/05/04 06:27:44;;;;;;;0.97;0.80;;;10.70;99.90;;;;;;5009113;28;20290;-88
2022/05/04 06:35:39;;;;;;;3.07;1.03;;;10.70;99.90;;;;;;5046704;28;20193;-87
2022/05/04 06:38:05;;;;;;;0.80;0.80;;;10.80;99.90;;;;;;5033545;28;20220;-87
2022/05/04 06:40:30;;;;;;;0.80;0.80;;;11.00;99.90;;;;;;5018288;28;20217;-88
2022/05/04 06:42:57;;;;;;;0.77;0.77;;;11.20;99.90;;;;;;5007394;28;20232;-89
2022/05/04 06:45:23;;;;;;;0.47;0.47;;;11.40;99.90;;;;;;5043445;28;20232;-90
2022/05/04 06:47:49;;;;;;;0.50;0.50;;;11.50;99.90;;;;;;5047563;28;20217;-91
2022/05/04 06:50:15;;;;;;;2.57;1.60;;;11.50;99.90;;;;;;5046022;28;20657;-92
2022/05/04 06:52:41;;;;;;;2.70;1.83;;;11.50;99.90;;;;;;5027861;28;20216;-90
2022/05/04 06:55:07;;;;;;;1.17;0.90;;;11.60;99.90;;;;;;5043780;28;20308;-89
2022/05/04 06:57:34;;;;;;;0.90;0.90;;;11.50;99.90;;;;;;5044836;28;20312;-89
2022/05/04 07:00:04;;;;;;;3.00;0.83;;;11.20;99.90;;;;;;5013316;28;20214;-90
2022/05/04 07:02:32;;;;;;;1.30;0.70;;;11.40;99.90;;;;;;5029576;28;20269;-90
2022/05/04 07:04:58;;;;;;;4.33;2.50;;;11.40;99.90;;;;;;5012720;28;20190;-90
2022/05/04 07:07:24;;;;;;;3.60;3.30;;;11.70;99.90;;;;;;5027214;28;20224;-92
2022/05/04 07:09:50;;;;;;;4.67;1.83;;;11.80;99.90;;;;;;5044145;28;20306;-90
2022/05/04 07:12:15;;;;;;;3.47;1.30;;;11.80;99.90;;;;;;5026688;28;20678;-90
2022/05/04 07:14:41;;;;;;;1.77;1.00;;;11.50;99.90;;;;;;5042491;28;20232;-93
2022/05/04 07:17:07;;;;;;;4.40;1.37;;;11.60;99.90;;;;;;5027211;28;20198;-91
2022/05/04 07:19:32;;;;;;;0.60;0.60;;;11.30;99.90;;;;;;5002610;28;20276;-91
2022/05/04 07:22:01;;;;;;;1.00;0.70;;;11.20;99.90;;;;;;5043373;28;20285;-91
2022/05/04 07:24:26;;;;;;;0.83;0.83;;;11.30;99.90;;;;;;5044649;28;20237;-89
2022/05/04 07:26:55;;;;;;;2.83;1.13;;;11.20;99.90;;;;;;5023341;28;20214;-92
2022/05/04 07:29:21;;;;;;;2.60;0.70;;;11.70;99.90;;;;;;5031628;28;20218;-91
2022/05/04 07:31:47;;;;;;;2.37;0.73;;;11.70;99.90;;;;;;5045769;28;20201;-90
2022/05/04 07:34:17;;;;;;;0.43;0.43;;;11.40;99.90;;;;;;5048030;28;20209;-91
2022/05/04 07:36:44;;;;;;;1.03;0.87;;;11.10;99.90;;;;;;5050379;28;20508;-90
2022/05/04 07:42:21;;;;;;;2.40;0.80;;;11.20;99.90;;;;;;5048977;28;20229;-88
2022/05/04 07:44:40;;;;;;;2.07;1.07;;;11.10;99.90;;;;;;5035355;28;20242;-90
2022/05/04 07:47:07;;;;;;;1.37;0.90;;;11.00;99.90;;;;;;5049243;28;20190;-86
2022/05/04 07:49:32;;;;;;;2.30;1.70;;;11.10;99.90;;;;;;5036039;28;20214;-88
2022/05/04 07:51:59;;;;;;;2.70;1.47;;;11.50;99.90;;;;;;5051057;28;20207;-89
2022/05/04 07:54:24;;;;;;;0.70;0.70;;;11.90;99.90;;;;;;5013891;28;20277;-89
2022/05/04 07:56:52;;;;;;;1.27;1.13;;;12.00;99.90;;;;;;5021752;28;20659;-92
2022/05/04 07:59:18;;;;;;;5.13;0.80;;;12.30;99.90;;;;;;5050065;28;20197;-88
2022/05/04 08:04:28;;;;;;;3.80;1.70;;;12.40;99.90;;;;;;5047575;28;20240;-90
2022/05/04 08:06:54;;;;;;;1.07;0.70;;;12.10;99.90;;;;;;5029962;28;20217;-89
2022/05/04 08:09:19;;;;;;;1.33;1.23;;;12.20;99.90;;;;;;5046496;28;20331;-89
2022/05/04 08:11:45;;;;;;;1.90;1.10;;;12.50;99.90;;;;;;5018319;28;20301;-88
2022/05/04 08:14:19;;;;;;;1.63;0.80;;;12.70;99.90;;;;;;5027491;28;20283;-91
2022/05/04 08:16:48;;;;;;;8.93;1.60;;;12.80;99.90;;;;;;5028357;28;21199;-89
2022/05/04 08:19:14;;;;;;;1.17;1.07;;;12.60;99.90;;;;;;5030667;28;20218;-90
2022/05/04 08:21:42;;;;;;;2.23;1.20;;;12.00;99.90;;;;;;5045228;28;20222;-91
2022/05/04 08:24:08;;;;;;;1.00;0.83;;;12.10;99.90;;;;;;5024671;28;20347;-90
2022/05/04 08:26:34;;;;;;;1.33;0.80;;;12.10;99.90;;;;;;5045517;28;20241;-90
2022/05/04 08:29:03;;;;;;;1.90;1.33;;;12.10;99.90;;;;;;5029081;28;20247;-91
2022/05/04 08:31:29;;;;;;;2.33;2.10;;;12.40;99.90;;;;;;5046483;28;20290;-90
2022/05/04 08:33:55;;;;;;;3.87;0.90;;;12.40;99.90;;;;;;5024472;28;20262;-89
2022/05/04 08:36:24;;;;;;;4.17;2.17;;;12.30;99.90;;;;;;5034637;28;20252;-90
2022/05/04 08:38:50;;;;;;;4.90;1.37;;;12.40;99.90;;;;;;5044966;28;20237;-90
2022/05/04 08:41:18;;;;;;;1.87;1.10;;;13.00;99.90;;;;;;5046442;28;20182;-89
2022/05/04 08:43:49;;;;;;;3.13;1.60;;;13.20;99.90;;;;;;5037366;28;20234;-89
2022/05/04 08:46:18;;;;;;;0.90;0.80;;;12.20;99.90;;;;;;5034752;28;20228;-90
2022/05/04 08:48:45;;;;;;;2.80;1.33;;;11.70;99.90;;;;;;5045133;28;20301;-89
2022/05/04 08:51:13;;;;;;;1.27;1.00;;;11.50;99.90;;;;;;5044327;28;20228;-89
2022/05/04 08:53:44;;;;;;;2.53;0.87;;;11.80;99.90;;;;;;5035582;28;20240;-88
2022/05/04 08:56:13;;;;;;;1.53;1.23;;;12.10;99.90;;;;;;5045524;28;20178;-90
2022/05/04 08:58:40;;;;;;;1.90;0.97;;;12.60;99.90;;;;;;5034682;28;20554;-90
2022/05/04 09:01:06;;;;;;;0.80;0.80;;;13.50;99.90;;;;;;5037755;28;20229;-89
2022/05/04 09:03:38;;;;;;;1.37;1.27;;;14.20;99.90;;;;;;5018459;28;20766;-89
2022/05/04 09:06:09;;;;;;;1.40;0.90;;;14.90;99.90;;;;;;5030414;28;20210;-90
2022/05/04 09:08:54;;;;;;;0.60;0.60;;;14.90;99.90;;;;;;5034157;28;20277;-89
2022/05/04 09:11:23;;;;;;;1.50;1.37;;;14.60;99.90;;;;;;5045352;28;20823;-90
2022/05/04 09:13:50;;;;;;;1.30;0.60;;;14.40;99.90;;;;;;5044974;28;20186;-90
2022/05/04 09:16:34;;;;;;;3.27;1.20;;;14.70;99.90;;;;;;5037715;28;20226;-90
2022/05/04 09:19:11;;;;;;;0.50;0.50;;;14.60;99.90;;;;;;5044347;28;20263;-91
2022/05/04 09:21:41;;;;;;;2.20;1.00;;;13.90;99.90;;;;;;5044732;28;20230;-90
2022/05/04 09:24:08;;;;;;;1.23;0.93;;;13.70;99.90;;;;;;5044370;28;20245;-91
2022/05/04 09:26:42;;;;;;;0.70;0.70;;;13.70;99.90;;;;;;5043332;28;20359;-90
2022/05/04 09:29:11;;;;;;;5.17;1.50;;;14.50;99.90;;;;;;5031773;28;20225;-90
2022/05/04 09:31:40;;;;;;;5.67;1.60;;;14.80;99.90;;;;;;5032488;28;20229;-88
2022/05/04 09:34:09;;;;;;;2.43;0.90;;;14.90;99.90;;;;;;5040371;28;20629;-91
2022/05/04 09:45:10;;;;;;;2.70;0.87;;;14.50;99.90;;;;;;5044691;28;20250;-90
2022/05/04 09:47:38;;;;;;;0.70;0.70;;;14.90;99.90;;;;;;5060231;28;20434;-92
2022/05/04 09:50:04;;;;;;;5.07;2.07;;;14.80;99.90;;;;;;5028858;28;20232;-88
2022/05/04 09:53:00;;;;;;;0.80;0.80;;;15.40;99.90;;;;;;5060841;28;20231;-90
2022/05/04 09:55:26;;;;;;;2.60;1.33;;;16.00;99.90;;;;;;5044540;28;20221;-89
2022/05/04 09:57:54;;;;;;;1.60;1.20;;;16.10;99.90;;;;;;5027884;28;20232;-88
2022/05/04 10:00:22;;;;;;;3.13;1.20;;;14.50;99.90;;;;;;5045157;28;20603;-89
2022/05/04 10:02:48;;;;;;;4.57;1.40;;;14.20;99.90;;;;;;5042119;28;20595;-89
2022/05/04 10:05:16;;;;;;;1.63;1.30;;;16.10;99.90;;;;;;5011874;28;20644;-90
2022/05/04 10:07:42;;;;;;;0.97;0.90;;;17.90;99.90;;;;;;5031561;28;20223;-91
2022/05/04 10:10:11;;;;;;;1.17;0.90;;;19.20;99.90;;;;;;5033887;28;20299;-90
2022/05/04 10:12:50;;;;;;;4.37;1.17;;;20.40;99.90;;;;;;5041651;28;20213;-90
2022/05/04 10:15:18;;;;;;;4.40;1.27;;;18.00;99.90;;;;;;5043818;28;20224;-91
2022/05/04 10:18:05;;;;;;;1.20;1.10;;;16.70;99.90;;;;;;5059573;28;20209;-89
2022/05/04 10:20:48;;;;;;;5.90;1.40;;;16.00;99.90;;;;;;5045050;28;20623;-91
2022/05/04 10:23:24;;;;;;;1.27;1.20;;;16.10;99.90;;;;;;5044032;28;20206;-91
2022/05/04 10:26:00;;;;;;;;;;;;;;;;;;;;;
2022/05/04 10:28:37;;;;;;;3.63;1.30;;;14.70;99.90;;;;;;5013711;28;21072;-93
2022/05/04 10:31:19;;;;;;;1.00;0.90;;;15.20;99.90;;;;;;5034415;28;20313;-89
2022/05/04 10:33:56;;;;;;;2.00;1.23;;;16.40;99.90;;;;;;5045240;28;20225;-90
2022/05/04 10:36:29;;;;;;;3.10;1.50;;;18.10;99.90;;;;;;5044655;28;20960;-90
2022/05/04 10:39:02;;;;;;;5.43;1.53;;;19.30;99.90;;;;;;5037571;28;20221;-92
2022/05/04 10:41:38;;;;;;;1.90;1.37;;;19.40;98.50;;;;;;5043930;28;20212;-91
2022/05/04 10:44:10;;;;;;;1.40;1.30;;;19.40;98.60;;;;;;5034076;28;20238;-90
2022/05/04 10:46:41;;;;;;;2.23;1.40;;;18.50;99.90;;;;;;5045222;28;20235;-90
2022/05/04 10:49:10;;;;;;;1.87;1.47;;;16.80;99.90;;;;;;5034259;28;20209;-90
2022/05/04 10:51:38;;;;;;;1.20;1.10;;;17.30;99.90;;;;;;5026107;28;20220;-91
2022/05/04 10:54:13;;;;;;;4.63;1.67;;;18.30;99.90;;;;;;5043072;28;20220;-91
2022/05/04 10:56:46;;;;;;;5.23;1.50;;;17.60;99.90;;;;;;5045440;28;20240;-91
2022/05/04 10:59:35;;;;;;;1.77;1.30;;;17.10;99.90;;;;;;5046925;28;20223;-91
2022/05/04 11:02:07;;;;;;;1.23;1.13;;;17.10;99.90;;;;;;5047181;28;20517;-90
2022/05/04 11:04:54;;;;;;;3.40;1.30;;;17.90;99.90;;;;;;5049685;28;20214;-92
2022/05/04 11:07:48;;;;;;;3.47;1.70;;;17.10;99.90;;;;;;5033192;28;20226;-92
2022/05/04 11:10:25;;;;;;;3.67;2.07;;;16.40;99.90;;;;;;5019510;28;20396;-91
2022/05/04 11:13:08;;;;;;;2.60;1.97;;;16.00;99.90;;;;;;5042127;28;20225;-90
2022/05/04 11:15:37;;;;;;;8.03;1.60;;;16.50;99.90;;;;;;5052132;28;20220;-94
2022/05/04 11:18:07;;;;;;;1.43;1.33;;;17.40;99.90;;;;;;5046749;28;20228;-90
2022/05/04 11:20:33;;;;;;;2.43;1.57;;;17.80;99.90;;;;;;5048281;28;20191;-89
2022/05/04 11:22:59;;;;;;;2.03;1.13;;;17.70;99.90;;;;;;5048068;28;20221;-91
2022/05/04 11:25:25;;;;;;;2.83;1.33;;;16.90;99.90;;;;;;5047689;28;20214;-90
2022/05/04 11:27:50;;;;;;;2.17;1.53;;;16.60;99.90;;;;;;5029956;28;20256;-91
2022/05/04 11:30:18;;;;;;;4.10;1.63;;;16.70;99.90;;;;;;5029995;28;20221;-90
2022/05/04 11:32:44;;;;;;;5.43;1.83;;;16.10;99.90;;;;;;5047084;28;20641;-92
2022/05/04 11:35:14;;;;;;;2.10;1.37;;;15.90;99.90;;;;;;5031771;28;20186;-93
2022/05/04 11:37:40;;;;;;;3.97;1.30;;;15.40;99.90;;;;;;5063040;28;20214;-91
2022/05/04 11:40:12;;;;;;;4.37;1.67;;;15.50;99.90;;;;;;5030401;28;20228;-91
2022/05/04 11:42:37;;;;;;;3.30;1.90;;;15.90;99.90;;;;;;5044857;28;20244;-91
2022/05/04 11:45:03;;;;;;;3.00;1.80;;;16.70;99.90;;;;;;5047177;28;20226;-91
2022/05/04 11:47:29;;;;;;;3.40;1.60;;;16.30;99.90;;;;;;5029488;28;20186;-91
2022/05/04 11:49:55;;;;;;;6.40;1.50;;;16.10;99.90;;;;;;5030195;28;20248;-91
2022/05/04 11:52:21;;;;;;;1.73;1.40;;;16.50;99.90;;;;;;5029571;28;20210;-90
2022/05/04 11:54:47;;;;;;;4.70;1.70;;;15.60;99.90;;;;;;5028930;28;20225;-91
2022/05/04 11:57:19;;;;;;;1.87;1.20;;;16.10;99.90;;;;;;5046468;28;20221;-90
2022/05/04 11:59:46;;;;;;;2.30;1.20;;;15.30;99.90;;;;;;5047991;28;20225;-90
2022/05/04 12:02:12;;;;;;;1.33;1.23;;;15.20;99.90;;;;;;5030665;28;20536;-90
2022/05/04 12:04:38;;;;;;;1.93;1.73;;;15.10;99.90;;;;;;5044657;28;20706;-89
2022/05/04 12:07:04;;;;;;;1.40;1.20;;;15.10;99.90;;;;;;5029950;28;20315;-89
2022/05/04 12:09:30;;;;;;;1.43;1.23;;;15.00;99.90;;;;;;5046372;28;20690;-93
2022/05/04 12:11:56;;;;;;;4.60;1.60;;;15.00;99.90;;;;;;5047448;28;20218;-91
2022/05/04 12:14:22;;;;;;;4.13;1.53;;;14.80;99.90;;;;;;5045721;28;20207;-91
2022/05/04 12:16:48;;;;;;;1.37;1.10;;;14.70;99.90;;;;;;5029755;28;20589;-92
2022/05/04 12:19:17;;;;;;;3.33;1.73;;;15.20;99.90;;;;;;5027754;28;20228;-87
2022/05/04 12:21:43;;;;;;;2.30;1.30;;;15.40;99.90;;;;;;5044684;28;20363;-89
2022/05/04 12:24:12;;;;;;;2.33;1.37;;;15.40;99.90;;;;;;5027427;28;20248;-88
2022/05/04 12:26:39;;;;;;;4.10;1.60;;;15.30;99.90;;;;;;5026334;28;20255;-89
2022/05/04 12:34:35;;;;;;;2.20;1.60;;;15.10;99.90;;;;;;5046436;28;20213;-92
2022/05/04 12:37:01;;;;;;;6.80;1.40;;;15.10;99.90;;;;;;5028784;28;20663;-91
2022/05/04 12:39:27;;;;;;;2.73;1.43;;;15.20;99.90;;;;;;5045923;28;20222;-91
2022/05/04 12:42:00;;;;;;;3.43;1.63;;;15.50;99.90;;;;;;5045071;28;20237;-91
2022/05/04 12:44:25;;;;;;;3.03;1.50;;;15.30;99.90;;;;;;5003926;28;20198;-92
2022/05/04 12:46:53;;;;;;;3.80;1.97;;;15.50;99.90;;;;;;5046116;28;20582;-90
2022/05/04 12:49:21;;;;;;;1.73;1.37;;;15.00;99.90;;;;;;5047093;28;20930;-91
2022/05/04 12:51:47;;;;;;;1.60;1.37;;;14.70;99.90;;;;;;5046387;28;20210;-90
2022/05/04 12:54:16;;;;;;;2.60;1.30;;;14.80;99.90;;;;;;5028783;28;20217;-90
2022/05/04 12:56:48;;;;;;;3.50;1.60;;;14.50;99.90;;;;;;5044931;28;20218;-90
2022/05/04 12:59:15;;;;;;;1.40;1.30;;;14.60;99.90;;;;;;5045485;28;20277;-92
2022/05/04 13:01:41;;;;;;;2.33;1.40;;;14.80;99.90;;;;;;5046243;28;20682;-92
2022/05/04 13:04:07;;;;;;;5.27;1.57;;;14.70;99.90;;;;;;5045525;28;20445;-92
2022/05/04 13:06:32;;;;;;;8.90;2.43;;;14.70;99.90;;;;;;5045891;28;20218;-89
2022/05/04 13:08:58;;;;;;;1.50;1.40;;;14.60;99.90;;;;;;5043735;28;20253;-91
2022/05/04 13:11:28;;;;;;;1.40;1.30;;;14.00;99.90;;;;;;5046482;28;20194;-89
2022/05/04 13:13:54;;;;;;;3.33;1.67;;;14.00;99.90;;;;;;5045359;28;20185;-90
2022/05/04 13:16:20;;;;;;;4.63;1.80;;;14.50;99.90;;;;;;5046368;28;20291;-89
2022/05/04 13:18:46;;;;;;;2.53;1.50;;;14.60;99.90;;;;;;5044924;28;20228;-91
2022/05/04 13:21:12;;;;;;;4.97;1.87;;;14.50;99.90;;;;;;5028541;28;20295;-92
2022/05/04 13:23:38;;;;;;;4.87;1.73;;;14.80;99.90;;;;;;5045801;28;20218;-90
2022/05/04 13:26:04;;;;;;;4.67;1.90;;;15.20;99.90;;;;;;5028463;28;20200;-90
2022/05/04 13:28:31;;;;;;;0.70;0.70;;;15.00;99.90;;;;;;5028585;28;20221;-90
2022/05/04 13:30:59;;;;;;;1.50;1.10;;;14.70;99.90;;;;;;5045588;28;20663;-90
2022/05/04 13:33:26;;;;;;;3.97;2.40;;;14.80;99.90;;;;;;5028767;28;20295;-91
2022/05/04 13:35:52;;;;;;;3.07;1.50;;;14.80;99.90;;;;;;5045320;28;20225;-90